首页
METAR-TAF:

METAR-TAF

机场 :

Perry, 喬治亞, 美国

纬度: 32-30-38N, 经度: 083-46-02W, 海拔: 127米

当前天气观测

该预报发布于12分钟前的20:55 UTC
风速4节,风向
温度 17°C
湿度 59%
气压 1013 hPa
能見度: 16.1公里
阴天层高于4700英尺

METAR: KPXE 172055Z AUTO 01004KT 10SM OVC047 17/09 A2992 RMK AO2 T01700085

时间: 16:07 (21:07 UTC)


TAF: 丢失

超过4000个机场的气象观测和天气预报(METAR&TAF报告)。

可查询的气象台以黄色和红色小点在地图上表示。

将鼠标移到小点上方,可查看气象台名称。

然后点击查看天气观测和预报。

如需切换地图:点击带黑十字的绿色按钮放大地图;点击带横线的绿色按钮缩小地图;或者点击绿色箭头查看邻近地区的地图。


METAR-TAF: